Giovedì 20 Giugno 2024 Home 
Lommel - MX2 gara qualifica [01-08-10 08:06 by staff GoNBike.com] 

MX2 - Qualifying Race - Classification

Pos Nr Rider Nat. Fed. Bike Time laps Diff. First Diff. Prev. Bestlaptime in lap Speed

1 94 Roczen, Ken GER DMSB Suzuki 24:34.664 11 0:00.000 0:00.000 2:05.845 2 46.915
2 111 Herlings, Jeffrey NED KNMV KTM 24:43.540 11 0:08.876 0:08.876 2:07.767 3 46.209
3 11 Simpson, Shaun GBR MCUI KTM 25:08.820 11 0:34.156 0:25.280 2:10.871 4 45.113
4 1 Musquin, Marvin FRA FFM KTM 25:13.238 11 0:38.574 0:04.418 2:09.137 2 45.719
5 89 van Horebeek, Jeremy BEL FMB Kawasaki 25:16.985 11 0:42.321 0:03.747 2:09.837 4 45.472
6 21 Paulin, Gautier FRA MCM Yamaha 25:26.057 11 0:51.393 0:09.072 2:07.560 2 46.284
7 34 Roelants, Joel BEL FMB KTM 25:30.375 11 0:55.711 0:04.318 2:11.308 5 44.963
8 151 Kullas, Harri FIN SML Yamaha 25:37.632 11 1:02.968 0:07.257 2:11.977 5 44.735
9 45 Nicholls, Jake GBR ACU KTM 25:40.019 11 1:05.355 0:02.387 2:13.175 3 44.333
10 430 Charlier, Christophe FRA FFM Yamaha 25:47.047 11 1:12.383 0:07.028 2:10.522 2 45.234
11 183 Frossard, Steven FRA FFM Kawasaki 25:57.581 11 1:22.917 0:10.534 2:13.581 3 44.198
12 37 Teillet, Valentin FRA FFM KTM 26:01.359 11 1:26.695 0:03.778 2:13.804 4 44.124
13 75 Triest, Nick BEL FMB KTM 26:02.775 11 1:28.111 0:01.416 2:12.044 4 44.712
14 91 Karro, Matiss LAT LAMSF Suzuki 26:06.749 11 1:32.085 0:03.974 2:13.015 3 44.386
15 30 Klein Kromhof, Ceriel NED KNMV Yamaha 26:18.117 11 1:43.453 0:11.368 2:12.617 4 44.519
16 25 Coldenhoff, Glenn NED KNMV Yamaha 26:24.214 11 1:49.550 0:06.097 2:14.089 4 44.03
17 23 Tonus, Arnaud SUI FMS Suzuki 26:28.074 11 1:53.410 0:03.860 2:13.607 2 44.189
18 119 Pocock, Mel GBR ACU Yamaha 26:29.885 11 1:55.221 0:01.811 2:16.334 6 43.305
19 338 Osborne, Zach USA AMA Yamaha 26:43.575 11 2:08.911 0:13.690 2:15.674 6 43.516
20 824 Kouwenberg, Nick NED KNMV Suzuki 26:49.203 11 2:14.539 0:05.628 2:15.924 3 43.436
21 300 Tonkov, Aleksandr RUS DMSB Suzuki 24:56.008 10 1 lap 1 lap 2:19.820 2 42.226
22 97 van den Bogaert, Mike NED KNMV KTM 24:56.343 10 1 lap 0:00.335 2:16.656 2 43.203
23 77 Lupino, Alessandro ITA FMI Yamaha 24:58.205 10 1 lap 0:01.862 2:16.472 2 43.262
24 136 Olsen, Stefan Kjer DEN DMU Suzuki 25:01.129 10 1 lap 0:02.924 2:17.888 2 42.817
25 71 Butron, Jose Antonio ESP RFME Suzuki 25:04.023 10 1 lap 0:02.894 2:16.913 2 43.122
26 92 Battig, Alesandro ITA FMI Honda 25:07.632 10 1 lap 0:03.609 2:19.860 3 42.214
27 56 Ghysels, Gunther BEL FMB KTM 25:15.651 10 1 lap 0:08.019 2:19.964 3 42.182
28 260 Nyegaard, Remi NOR NMF Yamaha 25:25.176 10 1 lap 0:09.525 2:22.272 3 41.498
29 181 Michek, Martin CZE ACCR TM 25:29.246 10 1 lap 0:04.070 2:23.844 4 41.044
30 26 Eriksson, Alexander SWE SVEMO KTM 26:08.056 10 1 lap 0:38.810 2:16.658 2 43.203
31 550 Mitchell, Sean ZIM ZMSF Suzuki 26:36.066 10 1 lap 0:28.010 2:22.955 2 41.3
32 90 Moroni, Rudi ITA FMI Yamaha 26:36.342 10 1 lap 0:00.276 2:22.740 2 41.362
33 35 Larsen, Nikolaj DEN DMU Honda 13:05.311 5 6 laps 5 laps 2:19.894 3 42.203
34 152 Petrov, Petar BUL BMF Honda 10:31.958 4 7 laps 1 lap 2:20.937 4 41.891
35 170 Leib, Michael USA AMA Kawasaki 10:14.068 3 8 laps 1 lap 2:21.160 1 41.825
36 335 Verbruggen, Dennis BEL FMB KTM 6:50.808 2 9 laps 1 lap 2:21.176 2 41.82





Visualizza tutte le newsArchivio Cerca un termine nelle newsCerca Leggi le news più recentiPiù recenti   Versione stampabileStampa 
Notizia precedente
MX - In allestimento il Monterosato
Notizia successiva
Lommel - MX1 gara qualifica